Time;durP1;ratioP1;P1;durP2;ratioP2;P2;SDS_P1;SDS_P2;PMS_P1;PMS_P2;Temp;Humidity;BMP_temperature;BMP_pressure;BME280_temperature;BME280_humidity;BME280_pressure;Samples;Min_cycle;Max_cycle;Signal;HPM_P1;HPM_P2
2023/05/05 00:02:01;;;;;;;15.68;7.70;;;10.60;99.90;;;;;;5074632;28;20535;-72
2023/05/05 00:04:27;;;;;;;15.52;8.52;;;10.60;99.90;;;;;;5074234;28;20052;-71
2023/05/05 00:06:53;;;;;;;14.57;7.63;;;10.90;99.90;;;;;;5074372;28;20049;-73
2023/05/05 00:09:19;;;;;;;20.42;8.32;;;10.50;99.90;;;;;;5073301;28;20135;-72
2023/05/05 00:11:44;;;;;;;13.25;7.75;;;10.30;99.90;;;;;;5074647;28;20051;-74
2023/05/05 00:14:10;;;;;;;17.15;8.10;;;10.50;99.90;;;;;;5074232;28;20051;-71
2023/05/05 00:16:36;;;;;;;20.70;8.45;;;10.40;99.90;;;;;;5074153;28;20045;-71
2023/05/05 00:19:02;;;;;;;14.43;7.22;;;10.10;99.90;;;;;;5073950;28;20400;-72
2023/05/05 00:21:27;;;;;;;16.30;7.90;;;10.30;99.90;;;;;;5074129;28;20063;-72
2023/05/05 00:23:53;;;;;;;10.70;8.52;;;10.30;99.90;;;;;;5073804;28;20094;-72
2023/05/05 00:26:20;;;;;;;12.85;7.57;;;10.50;99.90;;;;;;5074466;28;20040;-71
2023/05/05 00:28:47;;;;;;;13.48;8.00;;;10.70;99.90;;;;;;5074092;28;20499;-72
2023/05/05 00:31:15;;;;;;;13.15;7.47;;;10.60;99.90;;;;;;5072853;28;20446;-72
2023/05/05 00:33:41;;;;;;;15.40;8.30;;;10.20;99.90;;;;;;5074004;28;20465;-75
2023/05/05 00:36:07;;;;;;;18.05;7.35;;;10.40;99.90;;;;;;5073736;28;20049;-72
2023/05/05 00:38:32;;;;;;;20.77;7.70;;;10.10;99.90;;;;;;5073853;28;20044;-72
2023/05/05 00:40:58;;;;;;;15.20;7.28;;;10.20;99.90;;;;;;5073744;28;20080;-73
2023/05/05 00:43:24;;;;;;;15.05;7.68;;;10.10;99.90;;;;;;5073682;28;20052;-71
2023/05/05 00:45:57;;;;;;;14.93;7.22;;;10.40;99.90;;;;;;5073607;28;20498;-73
2023/05/05 00:48:24;;;;;;;18.60;7.13;;;10.10;99.90;;;;;;5073338;28;20059;-76
2023/05/05 00:50:51;;;;;;;12.50;7.40;;;10.20;99.90;;;;;;5073549;28;20056;-72
2023/05/05 00:53:16;;;;;;;14.13;7.25;;;10.30;99.90;;;;;;5073593;28;20167;-68
2023/05/05 00:55:42;;;;;;;18.08;8.23;;;10.20;99.90;;;;;;5073851;28;20529;-71
2023/05/05 00:58:08;;;;;;;17.00;7.95;;;10.10;99.90;;;;;;5089236;28;20056;-73
2023/05/05 01:00:34;;;;;;;25.98;7.68;;;10.20;99.90;;;;;;5073337;28;20102;-72
2023/05/05 01:03:00;;;;;;;15.25;7.78;;;10.50;99.90;;;;;;5072386;28;20052;-73
2023/05/05 01:05:31;;;;;;;17.85;7.50;;;10.10;99.90;;;;;;5072923;28;20124;-72
2023/05/05 01:08:15;;;;;;;18.83;8.18;;;10.20;99.90;;;;;;5073396;28;20135;-73
2023/05/05 01:11:10;;;;;;;13.98;7.60;;;10.50;99.90;;;;;;5073353;28;20091;-72
2023/05/05 01:13:59;;;;;;;15.80;7.70;;;10.50;99.90;;;;;;5072933;28;20412;-73
2023/05/05 01:16:32;;;;;;;13.57;7.30;;;10.70;99.90;;;;;;5073271;28;20088;-72
2023/05/05 01:19:25;;;;;;;15.73;7.40;;;10.30;99.90;;;;;;5073308;28;20129;-73
2023/05/05 01:21:59;;;;;;;12.00;7.43;;;10.50;99.90;;;;;;5073016;28;20063;-72
2023/05/05 01:24:38;;;;;;;14.73;7.97;;;10.50;99.90;;;;;;5071870;28;20106;-73
2023/05/05 01:27:32;;;;;;;12.25;7.63;;;10.30;99.90;;;;;;5072857;28;20044;-73
2023/05/05 01:30:01;;;;;;;12.70;7.60;;;10.70;99.90;;;;;;5071838;28;20451;-73
2023/05/05 01:32:31;;;;;;;13.85;7.43;;;10.10;99.90;;;;;;5072436;28;20059;-74
2023/05/05 01:35:20;;;;;;;14.32;7.32;;;10.50;99.90;;;;;;5072715;28;20048;-73
2023/05/05 01:38:10;;;;;;;12.63;6.97;;;10.10;99.90;;;;;;5085143;28;20078;-74
2023/05/05 01:41:12;;;;;;;11.40;7.35;;;10.60;99.90;;;;;;5092701;28;20556;-76
2023/05/05 01:43:40;;;;;;;12.63;7.00;;;10.30;99.90;;;;;;5092970;28;20104;-72
2023/05/05 01:46:07;;;;;;;13.60;7.82;;;10.10;99.90;;;;;;5092578;28;20055;-73
2023/05/05 01:48:33;;;;;;;11.45;6.72;;;10.30;99.90;;;;;;5092607;28;20048;-78
2023/05/05 01:51:01;;;;;;;11.63;7.13;;;10.10;99.90;;;;;;5092747;28;20048;-73
2023/05/05 01:53:29;;;;;;;17.83;7.55;;;10.00;99.90;;;;;;5092473;28;20097;-74
2023/05/05 01:55:56;;;;;;;18.30;7.70;;;10.10;99.90;;;;;;5092604;28;20044;-74
2023/05/05 01:58:24;;;;;;;13.20;7.13;;;10.30;99.90;;;;;;5092613;28;20083;-73
2023/05/05 02:00:51;;;;;;;11.38;7.18;;;10.20;99.90;;;;;;5092468;28;20055;-73
2023/05/05 02:03:19;;;;;;;13.10;6.88;;;10.00;99.90;;;;;;5092355;28;20051;-70
2023/05/05 02:05:47;;;;;;;13.20;7.00;;;10.40;99.90;;;;;;5091053;28;20044;-73
2023/05/05 02:08:14;;;;;;;12.77;7.68;;;10.00;99.90;;;;;;5092670;28;20048;-72
2023/05/05 02:10:41;;;;;;;11.20;6.55;;;10.30;99.90;;;;;;5092755;28;20110;-71
2023/05/05 02:13:11;;;;;;;17.77;7.28;;;9.90;99.90;;;;;;5092124;28;20567;-73
2023/05/05 02:15:38;;;;;;;16.67;7.75;;;10.40;99.90;;;;;;5091807;28;20073;-80
2023/05/05 02:18:06;;;;;;;12.57;6.70;;;10.50;99.90;;;;;;5092343;28;20044;-79
2023/05/05 02:20:33;;;;;;;10.35;6.90;;;10.10;99.90;;;;;;5092128;28;20085;-75
2023/05/05 02:22:59;;;;;;;15.00;7.13;;;10.30;99.90;;;;;;5092313;28;20056;-73
2023/05/05 02:25:34;;;;;;;16.75;7.43;;;10.10;99.90;;;;;;5092260;28;20063;-75
2023/05/05 02:28:01;;;;;;;17.02;7.15;;;10.50;99.90;;;;;;5092234;28;20052;-75
2023/05/05 02:30:31;;;;;;;12.23;7.60;;;10.40;99.90;;;;;;5092050;28;20051;-74
2023/05/05 02:33:04;;;;;;;12.93;7.22;;;10.60;99.90;;;;;;5092019;28;20100;-76
2023/05/05 02:35:40;;;;;;;13.63;6.85;;;10.30;99.90;;;;;;5090992;28;20506;-74
2023/05/05 02:38:16;;;;;;;14.40;7.32;;;10.30;99.90;;;;;;5092202;28;20051;-75
2023/05/05 02:40:43;;;;;;;14.02;7.53;;;10.20;99.90;;;;;;5092144;28;20135;-80
2023/05/05 02:43:14;;;;;;;13.85;7.13;;;10.40;99.90;;;;;;5091945;28;20436;-74
2023/05/05 02:45:39;;;;;;;14.30;6.68;;;10.60;99.90;;;;;;5091823;28;20188;-75
2023/05/05 02:48:05;;;;;;;13.50;7.22;;;10.30;99.90;;;;;;5090420;28;20146;-77
2023/05/05 02:50:31;;;;;;;13.05;6.97;;;10.40;99.90;;;;;;5090926;28;20135;-71
2023/05/05 02:52:58;;;;;;;15.38;7.07;;;10.50;99.90;;;;;;5090904;28;20040;-75
2023/05/05 02:55:38;;;;;;;14.20;7.10;;;9.80;99.90;;;;;;5090859;28;20056;-77
2023/05/05 02:58:06;;;;;;;15.43;7.63;;;10.30;99.90;;;;;;5091798;28;20526;-75
2023/05/05 03:00:45;;;;;;;13.88;7.22;;;10.40;99.90;;;;;;5091967;28;20131;-74
2023/05/05 03:03:38;;;;;;;11.75;6.85;;;10.10;99.90;;;;;;5091887;28;20131;-83
2023/05/05 03:06:16;;;;;;;16.48;7.15;;;10.30;99.90;;;;;;5091692;28;20054;-75
2023/05/05 03:09:01;;;;;;;15.75;6.43;;;10.20;99.90;;;;;;5091978;28;20056;-75
2023/05/05 03:11:31;;;;;;;14.55;7.25;;;10.10;99.90;;;;;;5091892;28;20048;-77
2023/05/05 03:14:08;;;;;;;11.55;6.82;;;10.20;99.90;;;;;;5091836;28;20177;-76
2023/05/05 03:16:35;;;;;;;13.85;6.70;;;10.30;99.90;;;;;;5090534;28;20048;-74
2023/05/05 03:19:03;;;;;;;13.38;6.90;;;9.90;99.90;;;;;;5091510;28;20051;-74
2023/05/05 03:21:30;;;;;;;13.60;7.13;;;10.10;99.90;;;;;;5091767;28;20044;-74
2023/05/05 03:23:57;;;;;;;18.90;6.65;;;10.20;99.90;;;;;;5091678;28;20104;-75
2023/05/05 03:26:23;;;;;;;15.82;7.20;;;9.50;99.90;;;;;;5091754;28;20063;-74
2023/05/05 03:28:49;;;;;;;;;;;10.00;99.90;;;;;;5096045;28;20044;-73
2023/05/05 03:31:15;;;;;;;17.58;7.15;;;9.70;99.90;;;;;;5095307;28;20011;-75
2023/05/05 03:33:41;;;;;;;;;;;9.80;99.90;;;;;;5096006;28;20105;-74
2023/05/05 03:36:07;;;;;;;12.40;7.18;;;9.50;99.90;;;;;;5095453;28;20368;-74
2023/05/05 03:38:32;;;;;;;14.05;7.07;;;9.80;99.90;;;;;;5095463;28;20147;-74
2023/05/05 03:41:02;;;;;;;15.95;7.38;;;9.70;99.90;;;;;;5094274;28;20226;-74
2023/05/05 03:43:27;;;;;;;12.35;6.95;;;9.70;99.90;;;;;;5094147;28;20419;-76
2023/05/05 03:45:53;;;;;;;15.05;7.53;;;9.70;99.90;;;;;;5095072;28;20046;-75
2023/05/05 03:48:19;;;;;;;15.80;7.20;;;9.50;99.90;;;;;;5094887;28;20548;-73
2023/05/05 03:50:45;;;;;;;14.75;7.07;;;9.80;99.90;;;;;;5095254;28;20044;-73
2023/05/05 03:53:10;;;;;;;15.02;8.07;;;9.70;99.90;;;;;;5095149;28;20131;-73
2023/05/05 03:55:36;;;;;;;12.57;7.05;;;9.80;99.90;;;;;;5095131;28;20043;-74
2023/05/05 03:58:02;;;;;;;15.15;7.60;;;9.80;99.90;;;;;;5094988;28;20498;-74
2023/05/05 04:00:28;;;;;;;14.55;7.18;;;9.50;99.90;;;;;;5094880;28;20076;-74
2023/05/05 04:02:53;;;;;;;16.70;7.40;;;9.60;99.90;;;;;;5093879;28;20040;-73
2023/05/05 04:05:21;;;;;;;16.25;6.85;;;9.80;99.90;;;;;;5095218;28;20043;-73
2023/05/05 04:07:47;;;;;;;14.23;7.35;;;9.80;99.90;;;;;;5094998;28;20048;-74
2023/05/05 04:10:12;;;;;;;14.20;7.47;;;9.90;99.90;;;;;;5094683;28;20043;-73
2023/05/05 04:12:38;;;;;;;14.50;7.68;;;9.90;99.90;;;;;;5094689;28;20040;-73
2023/05/05 04:15:05;;;;;;;12.27;7.50;;;9.90;99.90;;;;;;5094585;28;20043;-73
2023/05/05 04:17:31;;;;;;;14.40;7.90;;;9.80;99.90;;;;;;5094468;28;20533;-72
2023/05/05 04:19:57;;;;;;;14.48;7.35;;;9.90;99.90;;;;;;5094667;28;20047;-74
2023/05/05 04:22:22;;;;;;;12.20;7.82;;;10.00;99.90;;;;;;5093545;28;20050;-73
2023/05/05 04:24:48;;;;;;;20.55;8.90;;;10.00;99.90;;;;;;5094392;28;20073;-72
2023/05/05 04:27:14;;;;;;;20.60;8.10;;;10.10;99.90;;;;;;5094456;28;20377;-69
2023/05/05 04:29:40;;;;;;;14.90;7.70;;;9.70;99.90;;;;;;5094314;28;20059;-67
2023/05/05 04:32:05;;;;;;;19.23;8.30;;;9.70;99.90;;;;;;5094177;28;20058;-66
2023/05/05 04:34:31;;;;;;;17.80;8.23;;;9.90;99.90;;;;;;5094446;28;20115;-67
2023/05/05 04:36:57;;;;;;;12.52;8.25;;;10.00;99.90;;;;;;5094292;28;20044;-67
2023/05/05 04:39:22;;;;;;;19.20;9.30;;;9.80;99.90;;;;;;5093927;28;20474;-67
2023/05/05 04:41:48;;;;;;;17.67;8.65;;;9.60;99.90;;;;;;5094058;28;20044;-66
2023/05/05 04:44:14;;;;;;;15.43;7.75;;;9.90;99.90;;;;;;5093994;28;20202;-66
2023/05/05 04:46:40;;;;;;;9.75;7.72;;;9.80;99.90;;;;;;5093638;28;20047;-67
2023/05/05 04:49:06;;;;;;;15.65;8.95;;;9.70;99.90;;;;;;5094158;28;20066;-65
2023/05/05 04:51:31;;;;;;;20.67;8.88;;;9.40;99.90;;;;;;5094064;28;20452;-65
2023/05/05 04:53:57;;;;;;;17.35;8.70;;;9.70;99.90;;;;;;5093937;28;20443;-65
2023/05/05 04:56:23;;;;;;;15.35;8.63;;;9.90;99.90;;;;;;5093789;28;20052;-66
2023/05/05 04:58:49;;;;;;;13.23;8.23;;;10.00;99.90;;;;;;5093700;28;20068;-65
2023/05/05 05:01:15;;;;;;;13.48;8.60;;;9.60;99.90;;;;;;5093474;28;20076;-65
2023/05/05 05:03:41;;;;;;;13.05;7.82;;;9.80;99.90;;;;;;5093774;28;20078;-67
2023/05/05 05:06:07;;;;;;;17.58;8.88;;;9.70;99.90;;;;;;5093666;28;20472;-66
2023/05/05 05:08:32;;;;;;;14.15;8.23;;;9.50;99.90;;;;;;5093800;28;20893;-65
2023/05/05 05:10:59;;;;;;;14.20;8.80;;;10.00;99.90;;;;;;5093593;28;20044;-66
2023/05/05 05:13:24;;;;;;;;;;;9.40;99.90;;;;;;5093815;28;20504;-66
2023/05/05 05:15:50;;;;;;;13.88;8.98;;;9.50;99.90;;;;;;5093320;28;19924;-65
2023/05/05 05:18:16;;;;;;;21.02;9.10;;;9.40;99.90;;;;;;5093585;28;20048;-64
2023/05/05 05:20:41;;;;;;;13.75;9.20;;;9.80;99.90;;;;;;5093471;28;20455;-65
2023/05/05 05:23:07;;;;;;;18.55;8.90;;;9.80;99.90;;;;;;5093408;28;20079;-66
2023/05/05 05:25:33;;;;;;;12.90;8.68;;;9.40;99.90;;;;;;5093291;28;20123;-65
2023/05/05 05:27:58;;;;;;;14.60;9.02;;;9.60;99.90;;;;;;5093201;28;20048;-66
2023/05/05 05:30:24;;;;;;;12.40;8.45;;;9.20;99.90;;;;;;5093191;28;20048;-66
2023/05/05 05:32:50;;;;;;;16.42;8.57;;;9.80;99.90;;;;;;5093392;28;20498;-66
2023/05/05 05:35:15;;;;;;;15.07;9.00;;;9.30;99.90;;;;;;5093245;28;20047;-66
2023/05/05 05:37:41;;;;;;;11.88;8.60;;;9.20;99.90;;;;;;5093218;28;20051;-67
2023/05/05 05:40:08;;;;;;;17.80;8.75;;;9.40;99.90;;;;;;5093052;28;20048;-66
2023/05/05 05:42:34;;;;;;;18.75;8.52;;;9.30;99.90;;;;;;5091930;28;20052;-66
2023/05/05 05:45:00;;;;;;;18.13;8.70;;;9.50;99.90;;;;;;5092821;28;20143;-66
2023/05/05 05:47:26;;;;;;;21.42;9.25;;;9.20;99.90;;;;;;5092735;28;20060;-67
2023/05/05 05:49:52;;;;;;;13.80;9.13;;;9.40;99.90;;;;;;5091746;28;20071;-67
2023/05/05 05:52:18;;;;;;;15.93;9.32;;;9.70;99.90;;;;;;5092662;28;20060;-67
2023/05/05 05:54:43;;;;;;;14.00;9.27;;;9.90;99.90;;;;;;5092896;28;20131;-67
2023/05/05 05:57:09;;;;;;;13.60;9.38;;;10.00;99.90;;;;;;5091842;28;20050;-68
2023/05/05 05:59:35;;;;;;;17.63;9.27;;;9.60;99.90;;;;;;5091686;28;20048;-68
2023/05/05 06:02:01;;;;;;;15.68;8.77;;;9.90;99.90;;;;;;5091695;28;20060;-68
2023/05/05 06:04:26;;;;;;;18.13;8.73;;;10.10;99.90;;;;;;5092723;28;20040;-69
2023/05/05 06:06:52;;;;;;;14.55;9.48;;;10.10;99.90;;;;;;5092646;28;20048;-69
2023/05/05 06:09:17;;;;;;;18.10;8.95;;;10.10;99.90;;;;;;5092532;28;20050;-69
2023/05/05 06:11:43;;;;;;;16.42;9.55;;;9.90;99.90;;;;;;5092497;28;20055;-69
2023/05/05 06:14:09;;;;;;;19.27;8.35;;;9.80;99.90;;;;;;5089900;28;20499;-74
2023/05/05 06:16:35;;;;;;;16.20;8.23;;;10.10;99.90;;;;;;5071860;28;20066;-67
2023/05/05 06:19:00;;;;;;;17.95;8.60;;;9.70;99.90;;;;;;5071914;28;20045;-70
2023/05/05 06:21:26;;;;;;;13.48;8.68;;;10.20;99.90;;;;;;5091245;28;20090;-71
2023/05/05 06:23:52;;;;;;;13.07;8.80;;;10.50;99.90;;;;;;5091594;28;20043;-71
2023/05/05 06:26:18;;;;;;;13.63;9.57;;;10.10;99.90;;;;;;5091786;28;20134;-71
2023/05/05 06:28:43;;;;;;;13.50;7.82;;;10.30;99.90;;;;;;5091810;28;20081;-69
2023/05/05 06:31:11;;;;;;;18.63;8.85;;;10.50;99.90;;;;;;5090848;28;20056;-72
2023/05/05 06:33:37;;;;;;;10.68;8.63;;;10.50;99.90;;;;;;5090808;28;20229;-71
2023/05/05 06:36:03;;;;;;;12.73;8.57;;;10.80;99.90;;;;;;5091899;28;20462;-71
2023/05/05 06:38:28;;;;;;;17.23;9.35;;;10.80;99.90;;;;;;5091389;28;20542;-72
2023/05/05 06:40:57;;;;;;;13.75;8.63;;;11.00;99.90;;;;;;5091513;28;20132;-71
2023/05/05 06:43:22;;;;;;;15.35;9.25;;;10.80;99.90;;;;;;5091457;28;20555;-73
2023/05/05 06:45:48;;;;;;;13.93;9.27;;;11.20;99.90;;;;;;5090930;28;20132;-72
2023/05/05 06:48:14;;;;;;;13.82;9.45;;;11.10;99.90;;;;;;5090905;28;20048;-72
2023/05/05 06:50:39;;;;;;;19.85;9.65;;;11.60;99.90;;;;;;5091692;28;20075;-71
2023/05/05 06:53:05;;;;;;;13.13;8.55;;;11.40;99.90;;;;;;5091070;28;20526;-72
2023/05/05 06:55:31;;;;;;;14.15;9.32;;;11.40;99.90;;;;;;5091401;28;20404;-72
2023/05/05 06:57:56;;;;;;;12.73;8.93;;;11.00;99.90;;;;;;5091324;28;20063;-79
2023/05/05 07:00:22;;;;;;;16.02;9.23;;;11.60;99.90;;;;;;5083520;28;20363;-78
2023/05/05 07:02:48;;;;;;;15.05;10.35;;;11.50;99.90;;;;;;5094592;28;20492;-82
2023/05/05 07:05:14;;;;;;;14.88;9.07;;;11.30;99.90;;;;;;5094340;28;20444;-84
2023/05/05 07:07:52;;;;;;;11.30;9.13;;;11.50;99.90;;;;;;5094887;28;20204;-82
2023/05/05 07:10:18;;;;;;;13.80;9.00;;;11.60;99.90;;;;;;5095437;28;20039;-84
2023/05/05 07:12:44;;;;;;;13.45;9.02;;;11.80;99.90;;;;;;5095112;28;20048;-83
2023/05/05 07:15:10;;;;;;;12.57;8.35;;;11.90;99.90;;;;;;5094368;28;20396;-81
2023/05/05 07:17:35;;;;;;;14.75;9.82;;;12.60;99.90;;;;;;5092612;28;20048;-76
2023/05/05 07:20:01;;;;;;;15.38;8.45;;;12.40;99.90;;;;;;5094027;28;20040;-75
2023/05/05 07:22:27;;;;;;;13.77;8.07;;;12.60;99.90;;;;;;5095028;28;20514;-83
2023/05/05 07:24:53;;;;;;;13.95;8.50;;;12.50;99.90;;;;;;5095090;28;20139;-81
2023/05/05 07:27:21;;;;;;;15.70;8.90;;;12.80;99.90;;;;;;5094190;28;20135;-74
2023/05/05 07:29:47;;;;;;;14.52;8.98;;;12.80;99.90;;;;;;5094950;28;20052;-76
2023/05/05 07:32:13;;;;;;;13.25;8.50;;;13.10;99.90;;;;;;5095040;28;20051;-81
2023/05/05 07:34:39;;;;;;;10.35;7.90;;;13.20;99.90;;;;;;5093668;28;20050;-71
2023/05/05 07:37:05;;;;;;;18.15;8.70;;;13.30;99.90;;;;;;5095036;28;20047;-69
2023/05/05 07:39:31;;;;;;;14.25;8.55;;;12.70;99.90;;;;;;5094659;28;20113;-77
2023/05/05 07:41:57;;;;;;;11.57;8.35;;;13.20;99.90;;;;;;5094803;28;20054;-83
2023/05/05 07:44:23;;;;;;;11.95;8.77;;;13.10;99.90;;;;;;5095351;28;20044;-82
2023/05/05 07:46:49;;;;;;;18.95;8.73;;;13.50;99.90;;;;;;5093910;28;20052;-76
2023/05/05 07:49:15;;;;;;;11.60;8.50;;;13.70;99.90;;;;;;5094404;28;20066;-84
2023/05/05 07:51:41;;;;;;;12.80;8.98;;;13.90;99.90;;;;;;5095102;28;20262;-84
2023/05/05 07:54:07;;;;;;;13.25;8.60;;;13.70;99.90;;;;;;5084886;28;20151;-78
2023/05/05 07:56:33;;;;;;;11.85;8.70;;;14.10;99.90;;;;;;5108417;28;20043;-78
2023/05/05 07:58:59;;;;;;;12.13;9.07;;;14.00;99.90;;;;;;5093873;28;20120;-81
2023/05/05 08:01:25;;;;;;;12.68;8.32;;;14.10;99.90;;;;;;5072873;28;20048;-79
2023/05/05 08:03:50;;;;;;;;;;;14.00;99.90;;;;;;5075326;28;20052;-79
2023/05/05 08:06:20;;;;;;;11.50;8.48;;;14.10;99.90;;;;;;5093920;28;19920;-81
2023/05/05 08:08:47;;;;;;;14.48;8.82;;;14.60;99.90;;;;;;5093974;28;20072;-80
2023/05/05 08:11:14;;;;;;;12.85;8.73;;;14.80;99.90;;;;;;5094372;28;20123;-82
2023/05/05 08:13:41;;;;;;;15.70;9.70;;;14.70;99.90;;;;;;5093731;28;20122;-83
2023/05/05 08:16:07;;;;;;;15.93;9.27;;;14.50;99.90;;;;;;5094004;28;20043;-80
2023/05/05 08:18:36;;;;;;;;;;;14.80;99.90;;;;;;5094821;28;20141;-79
2023/05/05 08:21:03;;;;;;;14.00;9.00;;;15.20;99.90;;;;;;5094286;28;19969;-78
2023/05/05 08:23:28;;;;;;;13.13;9.27;;;15.00;99.90;;;;;;5090623;28;20048;-81
2023/05/05 08:25:54;;;;;;;20.20;9.27;;;14.80;99.90;;;;;;5093693;28;20054;-81
2023/05/05 08:28:21;;;;;;;16.35;10.80;;;15.40;99.90;;;;;;5094562;28;20048;-82
2023/05/05 08:30:48;;;;;;;13.77;10.23;;;15.40;99.90;;;;;;5094285;28;20051;-79
2023/05/05 08:33:14;;;;;;;13.43;10.43;;;15.70;99.90;;;;;;5093293;28;20488;-82
2023/05/05 08:35:40;;;;;;;;;;;15.40;99.90;;;;;;5094774;28;20119;-77
2023/05/05 08:38:06;;;;;;;11.67;10.23;;;15.60;99.90;;;;;;5094187;28;19926;-77
2023/05/05 08:40:33;;;;;;;15.07;10.95;;;15.70;99.90;;;;;;5094595;28;20126;-77
2023/05/05 08:43:00;;;;;;;14.95;10.70;;;15.50;99.90;;;;;;5094536;28;20126;-76
2023/05/05 08:45:28;;;;;;;17.92;9.95;;;15.60;99.90;;;;;;5094178;28;20048;-78
2023/05/05 08:48:00;;;;;;;16.17;11.98;;;15.90;99.90;;;;;;5094135;28;20088;-86
2023/05/05 08:50:27;;;;;;;14.75;10.45;;;16.00;99.90;;;;;;5093986;28;20040;-80
2023/05/05 08:53:09;;;;;;;19.88;11.32;;;15.90;99.90;;;;;;5093693;28;20071;-77
2023/05/05 08:55:44;;;;;;;13.82;10.82;;;16.30;99.90;;;;;;5094152;28;20044;-76
2023/05/05 08:58:10;;;;;;;14.85;11.20;;;16.30;99.90;;;;;;5092944;28;20048;-81
2023/05/05 09:00:36;;;;;;;17.75;11.60;;;16.20;99.90;;;;;;5093846;28;20088;-75
2023/05/05 09:03:03;;;;;;;;;;;15.90;99.90;;;;;;5094133;28;20467;-80
2023/05/05 09:05:29;;;;;;;18.90;11.85;;;16.60;99.90;;;;;;5093637;28;20015;-75
2023/05/05 09:07:54;;;;;;;;;;;16.50;99.90;;;;;;5094182;28;20126;-75
2023/05/05 09:10:20;;;;;;;19.05;12.02;;;16.70;99.90;;;;;;5093750;28;19927;-76
2023/05/05 09:12:46;;;;;;;;;;;16.80;99.90;;;;;;5093990;28;20372;-77
2023/05/05 09:15:13;;;;;;;14.55;11.65;;;16.80;99.90;;;;;;5093534;28;19984;-80
2023/05/05 09:17:40;;;;;;;18.38;11.80;;;16.90;99.90;;;;;;5093110;28;20051;-75
2023/05/05 09:20:08;;;;;;;16.38;12.00;;;16.90;99.90;;;;;;5093385;28;20048;-75
2023/05/05 09:22:42;;;;;;;16.88;11.80;;;17.00;99.90;;;;;;5093551;28;20051;-78
2023/05/05 09:25:12;;;;;;;16.70;12.35;;;17.20;99.90;;;;;;5092281;28;20036;-74
2023/05/05 09:27:44;;;;;;;21.58;12.52;;;17.30;99.90;;;;;;5093419;28;20056;-74
2023/05/05 09:30:14;;;;;;;16.58;13.02;;;17.40;99.90;;;;;;5093152;28;20127;-77
2023/05/05 09:32:51;;;;;;;16.40;12.35;;;17.80;99.90;;;;;;5093396;28;20101;-76
2023/05/05 09:35:18;;;;;;;16.38;12.57;;;17.90;99.90;;;;;;5083979;28;20877;-76
2023/05/05 09:37:44;;;;;;;17.27;13.68;;;18.00;99.90;;;;;;5092191;28;20047;-75
2023/05/05 09:40:11;;;;;;;;;;;18.00;99.90;;;;;;5093193;28;20062;-76
2023/05/05 09:42:38;;;;;;;;;;;17.70;99.90;;;;;;5091772;28;19924;-74
2023/05/05 09:45:25;;;;;;;17.13;13.07;;;17.80;99.90;;;;;;5092451;28;19930;-76
2023/05/05 09:47:51;;;;;;;18.63;13.32;;;17.80;99.90;;;;;;5092879;28;20083;-76
2023/05/05 09:50:17;;;;;;;16.73;13.13;;;17.90;99.90;;;;;;5091820;28;20167;-74
2023/05/05 09:53:02;;;;;;;20.30;14.10;;;17.90;99.90;;;;;;5091214;28;20091;-73
2023/05/05 09:55:29;;;;;;;17.35;13.63;;;18.10;99.90;;;;;;5092234;28;20067;-74
2023/05/05 09:57:55;;;;;;;19.00;13.63;;;18.10;99.90;;;;;;5092194;28;20040;-77
2023/05/05 10:00:21;;;;;;;17.02;14.32;;;18.60;99.90;;;;;;5092191;28;20047;-73
2023/05/05 10:02:47;;;;;;;18.73;14.75;;;18.40;99.90;;;;;;5092555;28;20105;-73
2023/05/05 10:05:15;;;;;;;20.25;14.60;;;18.80;99.90;;;;;;5091289;28;20542;-74
2023/05/05 10:07:45;;;;;;;20.38;15.70;;;19.20;99.90;;;;;;5092295;28;20055;-77
2023/05/05 10:10:14;;;;;;;20.88;14.75;;;19.00;99.90;;;;;;5092373;28;20690;-74
2023/05/05 10:12:40;;;;;;;19.42;14.30;;;19.30;99.90;;;;;;5091571;28;20102;-76
2023/05/05 10:15:08;;;;;;;17.65;14.13;;;19.50;99.90;;;;;;5085651;28;20163;-80
2023/05/05 10:17:44;;;;;;;19.88;14.50;;;19.60;99.90;;;;;;5079193;28;20112;-78
2023/05/05 10:20:12;;;;;;;20.20;15.18;;;19.50;99.90;;;;;;5092268;28;20059;-77
2023/05/05 10:22:40;;;;;;;20.75;15.20;;;19.90;99.90;;;;;;5091558;28;20052;-77
2023/05/05 10:25:10;;;;;;;19.50;15.30;;;19.60;99.90;;;;;;5092219;28;20665;-77
2023/05/05 10:27:43;;;;;;;21.50;16.13;;;20.10;99.90;;;;;;5092182;28;20036;-77
2023/05/05 10:30:28;;;;;;;22.50;16.95;;;20.00;99.90;;;;;;5090512;28;20048;-73
2023/05/05 10:33:08;;;;;;;19.98;15.65;;;19.60;99.90;;;;;;5091984;28;20047;-76
2023/05/05 10:35:38;;;;;;;21.98;16.58;;;19.60;99.90;;;;;;5091898;28;20043;-75
2023/05/05 10:38:08;;;;;;;24.50;17.02;;;19.70;99.90;;;;;;5091580;28;20055;-75
2023/05/05 10:40:34;;;;;;;22.60;17.05;;;19.80;99.90;;;;;;5091923;28;20044;-73
2023/05/05 10:43:00;;;;;;;25.92;16.75;;;19.60;99.90;;;;;;5091927;28;20621;-74
2023/05/05 10:45:26;;;;;;;23.65;17.35;;;19.80;99.90;;;;;;5090710;28;20044;-75
2023/05/05 10:47:54;;;;;;;25.20;17.80;;;19.70;99.90;;;;;;5091689;28;20052;-74
2023/05/05 10:50:22;;;;;;;22.38;17.35;;;19.90;99.90;;;;;;5091448;28;20127;-77
2023/05/05 10:53:15;;;;;;;19.83;16.67;;;20.10;99.90;;;;;;5090939;28;20056;-75
2023/05/05 10:56:04;;;;;;;22.40;17.55;;;19.80;99.90;;;;;;5091604;28;20061;-75
2023/05/05 10:58:38;;;;;;;22.67;17.70;;;19.80;99.90;;;;;;5091896;28;20189;-74
2023/05/05 11:01:05;;;;;;;23.25;18.48;;;19.70;99.90;;;;;;5091018;28;20058;-73
2023/05/05 11:03:31;;;;;;;21.15;16.52;;;19.70;99.90;;;;;;5091604;28;20048;-75
2023/05/05 11:06:04;;;;;;;22.88;16.20;;;19.60;99.90;;;;;;5091444;28;20066;-76
2023/05/05 11:08:37;;;;;;;24.60;16.25;;;19.40;99.90;;;;;;5088546;28;20054;-74
2023/05/05 11:11:04;;;;;;;25.20;20.60;;;19.40;99.90;;;;;;5090034;28;20637;-75
2023/05/05 11:13:30;;;;;;;29.77;22.50;;;19.50;99.90;;;;;;5091726;28;20036;-76
2023/05/05 11:15:57;;;;;;;30.23;21.25;;;19.60;99.90;;;;;;5091628;28;20044;-74
2023/05/05 11:18:35;;;;;;;24.95;18.88;;;19.90;99.90;;;;;;5089831;28;20044;-74
2023/05/05 11:21:06;;;;;;;24.50;17.63;;;19.80;99.90;;;;;;5090657;28;20088;-79
2023/05/05 11:23:32;;;;;;;17.50;14.18;;;20.10;99.90;;;;;;5090854;28;20052;-74
2023/05/05 11:25:58;;;;;;;17.65;14.20;;;19.70;99.90;;;;;;5091682;28;20054;-78
2023/05/05 11:28:28;;;;;;;18.65;14.65;;;19.50;99.90;;;;;;5091659;28;20091;-74
2023/05/05 11:31:00;;;;;;;21.92;15.80;;;19.40;99.90;;;;;;5091712;28;20083;-77
2023/05/05 11:33:34;;;;;;;19.55;15.98;;;19.30;99.90;;;;;;5091489;28;20522;-76
2023/05/05 11:36:08;;;;;;;16.38;13.82;;;19.50;99.90;;;;;;5091748;28;20058;-75
2023/05/05 11:38:42;;;;;;;17.80;13.50;;;20.00;99.90;;;;;;5091532;28;20087;-74
2023/05/05 11:41:33;;;;;;;14.90;11.95;;;20.00;99.90;;;;;;5091517;28;20147;-74
2023/05/05 11:44:31;;;;;;;19.88;13.05;;;20.10;99.90;;;;;;5091449;28;20089;-74
2023/05/05 11:46:57;;;;;;;17.45;13.10;;;20.60;99.90;;;;;;5091900;28;20440;-75
2023/05/05 11:49:26;;;;;;;17.17;12.82;;;20.40;99.90;;;;;;5094910;28;20059;-79
2023/05/05 11:51:56;;;;;;;18.02;13.52;;;20.30;99.90;;;;;;5094885;28;20192;-74
2023/05/05 11:54:22;;;;;;;16.00;12.20;;;20.70;99.90;;;;;;5095025;28;20510;-76
2023/05/05 11:56:53;;;;;;;15.23;11.70;;;20.40;99.90;;;;;;5095241;28;20044;-74
2023/05/05 11:59:18;;;;;;;14.63;11.35;;;20.20;99.90;;;;;;5095082;28;20048;-77
2023/05/05 12:01:44;;;;;;;17.35;11.93;;;20.30;99.90;;;;;;5094976;28;20048;-75
2023/05/05 12:04:17;;;;;;;14.77;10.55;;;19.90;99.90;;;;;;5095027;28;20080;-75
2023/05/05 12:06:44;;;;;;;14.77;10.90;;;19.70;99.90;;;;;;5094747;28;20135;-77
2023/05/05 12:09:16;;;;;;;12.75;9.23;;;19.70;99.90;;;;;;5094734;28;20492;-76
2023/05/05 12:11:48;;;;;;;18.30;14.30;;;19.90;99.90;;;;;;5094935;28;20044;-79
2023/05/05 12:14:14;;;;;;;21.77;15.73;;;19.30;99.90;;;;;;5094834;28;20048;-74
2023/05/05 12:16:52;;;;;;;16.75;12.93;;;19.30;99.90;;;;;;5094642;28;20415;-74
2023/05/05 12:19:17;;;;;;;13.18;10.88;;;19.30;99.90;;;;;;5094541;28;20051;-81
2023/05/05 12:21:44;;;;;;;12.32;8.45;;;19.10;99.90;;;;;;5093684;28;20044;-77
2023/05/05 12:24:12;;;;;;;10.38;6.82;;;18.60;99.90;;;;;;5094676;28;20184;-74
2023/05/05 12:26:38;;;;;;;10.15;7.45;;;18.50;99.90;;;;;;5094576;28;20047;-81
2023/05/05 12:29:04;;;;;;;8.85;5.82;;;18.50;99.90;;;;;;5093163;28;20046;-72
2023/05/05 12:31:37;;;;;;;11.65;6.20;;;18.60;99.90;;;;;;5094186;28;20051;-74
2023/05/05 12:34:05;;;;;;;8.88;5.65;;;18.30;99.90;;;;;;5080939;28;20040;-74
2023/05/05 12:36:34;;;;;;;9.88;5.50;;;18.20;99.90;;;;;;5094083;28;20040;-76
2023/05/05 12:39:01;;;;;;;12.10;7.25;;;18.30;99.90;;;;;;5093959;28;20040;-74
2023/05/05 12:41:27;;;;;;;11.07;7.53;;;18.10;99.90;;;;;;5093397;28;20052;-78
2023/05/05 12:44:00;;;;;;;10.07;5.47;;;18.20;99.90;;;;;;5093948;28;20560;-75
2023/05/05 12:46:28;;;;;;;5.47;3.47;;;18.20;99.90;;;;;;5093640;28;20079;-74
2023/05/05 12:49:04;;;;;;;4.15;3.40;;;17.90;99.90;;;;;;5093369;28;20132;-74